createdAt,value
2018-09-26T00:00:10.700Z,1038.63
2018-09-26T00:01:10.652Z,1038.67
2018-09-26T00:02:10.593Z,1038.69
2018-09-26T00:03:10.832Z,1038.68
2018-09-26T00:04:11.121Z,1038.67
2018-09-26T00:05:10.860Z,1038.68
2018-09-26T00:06:10.775Z,1038.7
2018-09-26T00:07:10.771Z,1038.76
2018-09-26T00:08:10.582Z,1038.8
2018-09-26T00:09:10.790Z,1038.74
2018-09-26T00:10:10.758Z,1038.75
2018-09-26T00:11:10.782Z,1038.67
2018-09-26T00:12:10.896Z,1038.72
2018-09-26T00:13:10.740Z,1038.71
2018-09-26T00:14:10.626Z,1038.7
2018-09-26T00:15:10.677Z,1038.69
2018-09-26T00:16:10.719Z,1038.7
2018-09-26T00:17:10.741Z,1038.7
2018-09-26T00:18:10.981Z,1038.65
2018-09-26T00:19:10.773Z,1038.59
2018-09-26T00:20:10.565Z,1038.59
2018-09-26T00:21:10.757Z,1038.54
2018-09-26T00:22:10.772Z,1038.49
2018-09-26T00:23:10.682Z,1038.44
2018-09-26T00:24:10.690Z,1038.43
2018-09-26T00:25:10.568Z,1038.42
2018-09-26T00:26:10.773Z,1038.37
2018-09-26T00:27:10.887Z,1038.34
2018-09-26T00:28:10.627Z,1038.34
2018-09-26T00:29:10.835Z,1038.29
2018-09-26T00:30:10.925Z,1038.24
2018-09-26T00:31:10.873Z,1038.28
2018-09-26T00:32:10.847Z,1038.16
2018-09-26T00:33:10.768Z,1038.21
2018-09-26T00:34:10.586Z,1038.15
2018-09-26T00:35:11.116Z,1038.15
2018-09-26T00:36:11.413Z,1038.12
2018-09-26T00:37:10.710Z,1038.07
2018-09-26T00:38:10.912Z,1038.02
2018-09-26T00:39:10.605Z,1037.98
2018-09-26T00:40:10.731Z,1038.01
2018-09-26T00:41:10.855Z,1037.95
2018-09-26T00:42:11.025Z,1037.99
2018-09-26T00:43:10.693Z,1038.01
2018-09-26T00:44:10.687Z,1037.91
2018-09-26T00:45:10.684Z,1037.95
2018-09-26T00:46:10.695Z,1037.96
2018-09-26T00:47:10.794Z,1038
2018-09-26T00:48:10.684Z,1037.95
2018-09-26T00:49:10.531Z,1037.99
2018-09-26T00:50:10.530Z,1038.01
2018-09-26T00:51:10.566Z,1037.95
2018-09-26T00:52:10.612Z,1038.03
2018-09-26T00:53:10.689Z,1037.99
2018-09-26T00:54:10.697Z,1037.97
2018-09-26T00:55:10.666Z,1037.93
2018-09-26T00:56:10.745Z,1037.91
2018-09-26T00:57:10.689Z,1037.88
2018-09-26T00:58:10.825Z,1037.85
2018-09-26T00:59:10.504Z,1037.83
2018-09-26T01:00:10.735Z,1037.86
2018-09-26T01:01:10.559Z,1037.82
2018-09-26T01:02:10.540Z,1037.81
2018-09-26T01:03:10.687Z,1037.84
2018-09-26T01:04:10.543Z,1037.84
2018-09-26T01:05:10.599Z,1037.8
2018-09-26T01:06:10.980Z,1037.83
2018-09-26T01:07:10.769Z,1037.86
2018-09-26T01:08:10.543Z,1037.85
2018-09-26T01:09:10.691Z,1037.8
2018-09-26T01:10:10.622Z,1037.72
2018-09-26T01:11:10.648Z,1037.75
2018-09-26T01:12:10.755Z,1037.74
2018-09-26T01:13:10.659Z,1037.77
2018-09-26T01:14:10.727Z,1037.74
2018-09-26T01:15:10.736Z,1037.74
2018-09-26T01:16:10.508Z,1037.74
2018-09-26T01:17:10.560Z,1037.71
2018-09-26T01:18:10.490Z,1037.73
2018-09-26T01:19:10.773Z,1037.72
2018-09-26T01:20:10.784Z,1037.66
2018-09-26T01:21:10.663Z,1037.69
2018-09-26T01:22:10.681Z,1037.69
2018-09-26T01:23:10.666Z,1037.72
2018-09-26T01:24:10.827Z,1037.77
2018-09-26T01:25:10.677Z,1037.81
2018-09-26T01:26:10.521Z,1037.78
2018-09-26T01:27:10.681Z,1037.84
2018-09-26T01:28:10.518Z,1037.76
2018-09-26T01:29:10.628Z,1037.8
2018-09-26T01:30:10.510Z,1037.77
2018-09-26T01:31:10.713Z,1037.74
2018-09-26T01:32:10.628Z,1037.75
2018-09-26T01:33:10.632Z,1037.71
2018-09-26T01:34:10.664Z,1037.69
2018-09-26T01:35:10.737Z,1037.69
2018-09-26T01:36:10.686Z,1037.64
2018-09-26T01:37:10.627Z,1037.69
2018-09-26T01:38:10.683Z,1037.66
2018-09-26T01:39:10.558Z,1037.67
2018-09-26T01:40:10.579Z,1037.63
2018-09-26T01:41:10.492Z,1037.61
2018-09-26T01:42:10.685Z,1037.63
2018-09-26T01:43:10.519Z,1037.54
2018-09-26T01:44:10.738Z,1037.59
2018-09-26T01:45:10.683Z,1037.54
2018-09-26T01:46:10.605Z,1037.56
2018-09-26T01:47:10.648Z,1037.54
2018-09-26T01:48:10.927Z,1037.57
2018-09-26T01:49:10.504Z,1037.53
2018-09-26T01:50:10.732Z,1037.57
2018-09-26T01:51:10.829Z,1037.53
2018-09-26T01:52:10.925Z,1037.52
2018-09-26T01:53:10.536Z,1037.42
2018-09-26T01:54:10.477Z,1037.37
2018-09-26T01:55:10.616Z,1037.36
2018-09-26T01:56:10.760Z,1037.36
2018-09-26T01:57:10.966Z,1037.36
2018-09-26T01:58:10.501Z,1037.37
2018-09-26T01:59:10.669Z,1037.36
2018-09-26T02:00:10.417Z,1037.47
2018-09-26T02:01:10.605Z,1037.4
2018-09-26T02:02:10.592Z,1037.4
2018-09-26T02:03:10.557Z,1037.41
2018-09-26T02:04:10.422Z,1037.44
2018-09-26T02:05:10.467Z,1037.52
2018-09-26T02:06:10.457Z,1037.53
2018-09-26T02:07:10.446Z,1037.54
2018-09-26T02:08:10.595Z,1037.61
2018-09-26T02:09:10.601Z,1037.58
2018-09-26T02:10:10.582Z,1037.59
2018-09-26T02:11:10.594Z,1037.55
2018-09-26T02:12:10.590Z,1037.55
2018-09-26T02:13:10.611Z,1037.61
2018-09-26T02:14:10.437Z,1037.55
2018-09-26T02:15:10.580Z,1037.61
2018-09-26T02:16:10.442Z,1037.58
2018-09-26T02:17:10.523Z,1037.53
2018-09-26T02:18:10.599Z,1037.49
2018-09-26T02:19:10.566Z,1037.53
2018-09-26T02:20:10.592Z,1037.49
2018-09-26T02:21:10.992Z,1037.51
2018-09-26T02:22:10.576Z,1037.46
2018-09-26T02:23:10.416Z,1037.51
2018-09-26T02:24:10.778Z,1037.44
2018-09-26T02:25:10.614Z,1037.47
2018-09-26T02:26:10.615Z,1037.47
2018-09-26T02:27:10.509Z,1037.52
2018-09-26T02:28:10.634Z,1037.49
2018-09-26T02:29:10.504Z,1037.5
2018-09-26T02:30:10.564Z,1037.57
2018-09-26T02:31:10.518Z,1037.51
2018-09-26T02:32:10.727Z,1037.54
2018-09-26T02:33:10.590Z,1037.54
2018-09-26T02:34:10.777Z,1037.54
2018-09-26T02:35:10.474Z,1037.54
2018-09-26T02:36:10.579Z,1037.59
2018-09-26T02:37:10.723Z,1037.61
2018-09-26T02:38:10.598Z,1037.61
2018-09-26T02:39:10.368Z,1037.62
2018-09-26T02:40:10.375Z,1037.63
2018-09-26T02:41:10.450Z,1037.63
2018-09-26T02:42:10.526Z,1037.61
2018-09-26T02:43:10.535Z,1037.61
2018-09-26T02:44:10.709Z,1037.59
2018-09-26T02:45:10.662Z,1037.61
2018-09-26T02:46:10.620Z,1037.59
2018-09-26T02:47:10.632Z,1037.62
2018-09-26T02:48:10.615Z,1037.61
2018-09-26T02:49:10.517Z,1037.61
2018-09-26T02:50:10.980Z,1037.59
2018-09-26T02:51:10.493Z,1037.57
2018-09-26T02:52:10.638Z,1037.55
2018-09-26T02:53:10.501Z,1037.56
2018-09-26T02:54:10.553Z,1037.54
2018-09-26T02:55:10.605Z,1037.51
2018-09-26T02:56:10.399Z,1037.48
2018-09-26T02:57:10.515Z,1037.49
2018-09-26T02:58:10.523Z,1037.43
2018-09-26T02:59:10.381Z,1037.46
2018-09-26T03:00:10.601Z,1037.44
2018-09-26T03:01:10.554Z,1037.45
2018-09-26T03:02:10.584Z,1037.46
2018-09-26T03:03:10.548Z,1037.46
2018-09-26T03:04:10.575Z,1037.45
2018-09-26T03:05:10.385Z,1037.43
2018-09-26T03:06:10.429Z,1037.46
2018-09-26T03:07:10.515Z,1037.46
2018-09-26T03:08:10.589Z,1037.47
2018-09-26T03:09:10.506Z,1037.47
2018-09-26T03:10:10.504Z,1037.48
2018-09-26T03:11:10.462Z,1037.46
2018-09-26T03:12:10.460Z,1037.49
2018-09-26T03:13:10.368Z,1037.38
2018-09-26T03:14:10.674Z,1037.39
2018-09-26T03:15:10.424Z,1037.4
2018-09-26T03:16:10.524Z,1037.35
2018-09-26T03:17:10.865Z,1037.33
2018-09-26T03:18:11.156Z,1037.31
2018-09-26T03:19:10.464Z,1037.25
2018-09-26T03:20:10.440Z,1037.2
2018-09-26T03:21:10.629Z,1037.21
2018-09-26T03:22:10.473Z,1037.26
2018-09-26T03:23:10.638Z,1037.25
2018-09-26T03:24:10.509Z,1037.25
2018-09-26T03:25:10.315Z,1037.24
2018-09-26T03:26:10.576Z,1037.21
2018-09-26T03:27:10.491Z,1037.19
2018-09-26T03:28:10.477Z,1037.11
2018-09-26T03:29:10.521Z,1037.07
2018-09-26T03:30:10.645Z,1037.01
2018-09-26T03:31:10.456Z,1036.99
2018-09-26T03:32:10.483Z,1036.97
2018-09-26T03:33:10.302Z,1036.89
2018-09-26T03:34:10.772Z,1036.9
2018-09-26T03:35:10.313Z,1036.92
2018-09-26T03:36:10.525Z,1036.85
2018-09-26T03:37:10.503Z,1036.87
2018-09-26T03:38:10.340Z,1036.88
2018-09-26T03:39:10.338Z,1036.88
2018-09-26T03:40:10.458Z,1036.93
2018-09-26T03:41:10.293Z,1036.91
2018-09-26T03:42:10.283Z,1036.96
2018-09-26T03:43:10.294Z,1036.99
2018-09-26T03:44:10.448Z,1037
2018-09-26T03:45:10.536Z,1037.01
2018-09-26T03:46:10.875Z,1037
2018-09-26T03:47:10.293Z,1037.01
2018-09-26T03:48:10.625Z,1036.96
2018-09-26T03:49:10.389Z,1036.96
2018-09-26T03:50:10.439Z,1036.96
2018-09-26T03:51:10.474Z,1036.98
2018-09-26T03:52:10.436Z,1036.98
2018-09-26T03:53:10.359Z,1036.95
2018-09-26T03:54:10.393Z,1036.97
2018-09-26T03:55:10.826Z,1036.88
2018-09-26T03:56:10.438Z,1036.9
2018-09-26T03:57:10.498Z,1036.98
2018-09-26T03:58:10.475Z,1036.96
2018-09-26T03:59:10.488Z,1037.02
2018-09-26T04:00:10.565Z,1036.97
2018-09-26T04:01:10.551Z,1036.96
2018-09-26T04:02:10.281Z,1036.92
2018-09-26T04:03:10.325Z,1036.95
2018-09-26T04:04:10.439Z,1036.94
2018-09-26T04:05:10.362Z,1036.96
2018-09-26T04:06:10.396Z,1036.97
2018-09-26T04:07:10.401Z,1036.97
2018-09-26T04:08:10.316Z,1036.97
2018-09-26T04:09:10.455Z,1036.99
2018-09-26T04:10:10.471Z,1037.06
2018-09-26T04:11:10.467Z,1037.03
2018-09-26T04:12:10.504Z,1037.07
2018-09-26T04:13:10.637Z,1037.11
2018-09-26T04:14:10.489Z,1037.12
2018-09-26T04:15:11.108Z,1037.14
2018-09-26T04:16:10.466Z,1037.09
2018-09-26T04:17:10.300Z,1037.09
2018-09-26T04:18:10.480Z,1037.07
2018-09-26T04:19:10.417Z,1037.08
2018-09-26T04:20:10.451Z,1037.06
2018-09-26T04:21:10.292Z,1037.09
2018-09-26T04:22:10.464Z,1037.1
2018-09-26T04:23:10.451Z,1037.04
2018-09-26T04:24:10.373Z,1037.09
2018-09-26T04:25:10.524Z,1037.05
2018-09-26T04:26:10.644Z,1037.07
2018-09-26T04:27:10.676Z,1037.05
2018-09-26T04:28:10.354Z,1037.06
2018-09-26T04:29:10.409Z,1037.06
2018-09-26T04:30:10.317Z,1037.02
2018-09-26T04:31:10.344Z,1037.04
2018-09-26T04:32:10.458Z,1037.02
2018-09-26T04:33:10.949Z,1037.07
2018-09-26T04:34:10.387Z,1037.05
2018-09-26T04:35:10.512Z,1037.05
2018-09-26T04:36:10.696Z,1037.11
2018-09-26T04:37:10.253Z,1037.08
2018-09-26T04:38:10.439Z,1037.09
2018-09-26T04:39:10.491Z,1037.06
2018-09-26T04:40:10.366Z,1037.04
2018-09-26T04:41:10.245Z,1036.98
2018-09-26T04:42:10.500Z,1036.94
2018-09-26T04:43:10.446Z,1036.95
2018-09-26T04:44:10.233Z,1036.94
2018-09-26T04:45:10.216Z,1036.93
2018-09-26T04:46:10.349Z,1036.95
2018-09-26T04:47:10.209Z,1036.94
2018-09-26T04:48:10.343Z,1036.91
2018-09-26T04:49:10.182Z,1036.92
2018-09-26T04:50:10.355Z,1036.86
2018-09-26T04:51:10.257Z,1036.86
2018-09-26T04:52:10.171Z,1036.88
2018-09-26T04:53:10.205Z,1036.89
2018-09-26T04:54:10.415Z,1036.85
2018-09-26T04:55:10.337Z,1036.86
2018-09-26T04:56:10.621Z,1036.88
2018-09-26T04:57:10.339Z,1036.88
2018-09-26T04:58:10.391Z,1036.85
2018-09-26T04:59:10.314Z,1036.86
2018-09-26T05:00:10.333Z,1036.85
2018-09-26T05:01:10.351Z,1036.89
2018-09-26T05:02:10.181Z,1036.87
2018-09-26T05:03:10.196Z,1036.89
2018-09-26T05:04:10.163Z,1036.93
2018-09-26T05:05:10.199Z,1036.97
2018-09-26T05:06:10.516Z,1037
2018-09-26T05:07:10.398Z,1036.94
2018-09-26T05:08:10.556Z,1036.96
2018-09-26T05:09:10.401Z,1036.93
2018-09-26T05:10:10.334Z,1036.92
2018-09-26T05:11:10.638Z,1036.89
2018-09-26T05:12:10.349Z,1036.88
2018-09-26T05:13:10.501Z,1036.87
2018-09-26T05:14:10.365Z,1036.89
2018-09-26T05:15:10.340Z,1036.88
2018-09-26T05:16:10.418Z,1036.85
2018-09-26T05:17:10.224Z,1036.86
2018-09-26T05:18:10.282Z,1036.81
2018-09-26T05:19:10.334Z,1036.83
2018-09-26T05:20:10.259Z,1036.86
2018-09-26T05:21:10.518Z,1036.84
2018-09-26T05:22:10.313Z,1036.85
2018-09-26T05:23:10.488Z,1036.92
2018-09-26T05:24:10.323Z,1036.93
2018-09-26T05:25:10.543Z,1036.93
2018-09-26T05:26:10.437Z,1037.03
2018-09-26T05:27:10.314Z,1037.12
2018-09-26T05:28:10.152Z,1037.11
2018-09-26T05:29:10.240Z,1037.14
2018-09-26T05:30:10.354Z,1037.15
2018-09-26T05:31:10.392Z,1037.2
2018-09-26T05:32:10.485Z,1037.19
2018-09-26T05:33:10.310Z,1037.17
2018-09-26T05:34:10.304Z,1037.19
2018-09-26T05:35:10.456Z,1037.15
2018-09-26T05:36:10.285Z,1037.18
2018-09-26T05:37:10.688Z,1037.15
2018-09-26T05:38:10.116Z,1037.17
2018-09-26T05:39:10.146Z,1037.16
2018-09-26T05:40:10.750Z,1037.15
2018-09-26T05:41:10.130Z,1037.19
2018-09-26T05:42:10.263Z,1037.18
2018-09-26T05:43:10.365Z,1037.26
2018-09-26T05:44:10.388Z,1037.23
2018-09-26T05:45:10.329Z,1037.23
2018-09-26T05:46:10.436Z,1037.22
2018-09-26T05:47:10.388Z,1037.21
2018-09-26T05:48:10.371Z,1037.29
2018-09-26T05:49:10.311Z,1037.29
2018-09-26T05:50:10.224Z,1037.36
2018-09-26T05:51:10.391Z,1037.37
2018-09-26T05:52:10.113Z,1037.44
2018-09-26T05:53:10.240Z,1037.42
2018-09-26T05:54:10.414Z,1037.48
2018-09-26T05:55:10.257Z,1037.46
2018-09-26T05:56:10.539Z,1037.41
2018-09-26T05:57:10.304Z,1037.4
2018-09-26T05:58:10.131Z,1037.35
2018-09-26T05:59:10.063Z,1037.35
2018-09-26T06:00:10.382Z,1037.3
2018-09-26T06:01:10.191Z,1037.3
2018-09-26T06:02:10.259Z,1037.27
2018-09-26T06:03:10.312Z,1037.25
2018-09-26T06:04:10.171Z,1037.19
2018-09-26T06:05:10.109Z,1037.17
2018-09-26T06:06:10.233Z,1037.05
2018-09-26T06:07:10.078Z,1037.06
2018-09-26T06:08:10.285Z,1037.03
2018-09-26T06:09:10.284Z,1036.98
2018-09-26T06:10:10.422Z,1036.99
2018-09-26T06:11:10.300Z,1036.99
2018-09-26T06:12:10.242Z,1036.96
2018-09-26T06:13:10.215Z,1037
2018-09-26T06:14:10.244Z,1036.99
2018-09-26T06:15:10.228Z,1036.99
2018-09-26T06:16:10.091Z,1036.98
2018-09-26T06:17:10.061Z,1037.01
2018-09-26T06:18:10.210Z,1036.98
2018-09-26T06:19:10.247Z,1037.03
2018-09-26T06:20:10.262Z,1037.05
2018-09-26T06:21:10.202Z,1037.08
2018-09-26T06:22:10.223Z,1037.13
2018-09-26T06:23:10.074Z,1037.09
2018-09-26T06:24:10.210Z,1037.13
2018-09-26T06:25:10.221Z,1037.16
2018-09-26T06:26:10.308Z,1037.11
2018-09-26T06:27:10.028Z,1037.1
2018-09-26T06:28:11.592Z,1037.02
2018-09-26T06:29:10.074Z,1037
2018-09-26T06:30:10.029Z,1037.03
2018-09-26T06:31:10.234Z,1037.02
2018-09-26T06:32:10.070Z,1036.99
2018-09-26T06:33:10.073Z,1037.02
2018-09-26T06:34:10.316Z,1037.09
2018-09-26T06:35:10.201Z,1037.08
2018-09-26T06:36:10.100Z,1037.14
2018-09-26T06:37:10.066Z,1037.19
2018-09-26T06:38:10.108Z,1037.18
2018-09-26T06:39:10.207Z,1037.22
2018-09-26T06:40:10.178Z,1037.28
2018-09-26T06:41:09.992Z,1037.3
2018-09-26T06:42:10.204Z,1037.35
2018-09-26T06:43:10.221Z,1037.38
2018-09-26T06:44:10.045Z,1037.44
2018-09-26T06:45:10.300Z,1037.49
2018-09-26T06:46:10.206Z,1037.49
2018-09-26T06:47:10.017Z,1037.55
2018-09-26T06:48:10.348Z,1037.53
2018-09-26T06:49:10.170Z,1037.53
2018-09-26T06:50:10.157Z,1037.52
2018-09-26T06:51:10.082Z,1037.46
2018-09-26T06:52:10.219Z,1037.46
2018-09-26T06:53:10.087Z,1037.42
2018-09-26T06:54:10.267Z,1037.35
2018-09-26T06:55:10.502Z,1037.41
2018-09-26T06:56:10.664Z,1037.35
2018-09-26T06:57:10.162Z,1037.32
2018-09-26T06:58:10.213Z,1037.32
2018-09-26T06:59:10.998Z,1037.34
2018-09-26T07:00:10.145Z,1037.34
2018-09-26T07:01:10.147Z,1037.34
2018-09-26T07:02:09.997Z,1037.37
2018-09-26T07:03:10.416Z,1037.35
2018-09-26T07:04:10.089Z,1037.4
2018-09-26T07:05:10.127Z,1037.36
2018-09-26T07:06:10.546Z,1037.38
2018-09-26T07:07:10.204Z,1037.42
2018-09-26T07:08:10.011Z,1037.41
2018-09-26T07:09:09.994Z,1037.43
2018-09-26T07:10:10.058Z,1037.47
2018-09-26T07:11:10.170Z,1037.48
2018-09-26T07:12:10.286Z,1037.41
2018-09-26T07:13:10.083Z,1037.42
2018-09-26T07:14:10.180Z,1037.42
2018-09-26T07:15:10.221Z,1037.42
2018-09-26T07:16:10.148Z,1037.42
2018-09-26T07:17:10.014Z,1037.45
2018-09-26T07:18:10.065Z,1037.46
2018-09-26T07:19:10.169Z,1037.52
2018-09-26T07:20:09.973Z,1037.55
2018-09-26T07:21:10.256Z,1037.63
2018-09-26T07:22:10.290Z,1037.63
2018-09-26T07:23:10.132Z,1037.66
2018-09-26T07:24:10.200Z,1037.71
2018-09-26T07:25:10.021Z,1037.68
2018-09-26T07:26:10.124Z,1037.65
2018-09-26T07:27:10.224Z,1037.69
2018-09-26T07:28:10.219Z,1037.59
2018-09-26T07:29:10.135Z,1037.6
2018-09-26T07:30:10.129Z,1037.56
2018-09-26T07:31:10.151Z,1037.53
2018-09-26T07:32:10.217Z,1037.46
2018-09-26T07:33:10.123Z,1037.43
2018-09-26T07:34:09.969Z,1037.46
2018-09-26T07:35:10.118Z,1037.48
2018-09-26T07:36:10.107Z,1037.48
2018-09-26T07:37:10.401Z,1037.52
2018-09-26T07:38:09.966Z,1037.57
2018-09-26T07:39:10.132Z,1037.55
2018-09-26T07:40:09.985Z,1037.58
2018-09-26T07:41:10.093Z,1037.57
2018-09-26T07:42:09.944Z,1037.57
2018-09-26T07:43:10.094Z,1037.61
2018-09-26T07:44:10.140Z,1037.58
2018-09-26T07:45:10.149Z,1037.61
2018-09-26T07:46:09.969Z,1037.6
2018-09-26T07:47:10.092Z,1037.6
2018-09-26T07:48:10.122Z,1037.59
2018-09-26T07:49:10.179Z,1037.52
2018-09-26T07:50:10.120Z,1037.56
2018-09-26T07:51:10.089Z,1037.49
2018-09-26T07:52:09.947Z,1037.44
2018-09-26T07:53:10.387Z,1037.43
2018-09-26T07:54:10.116Z,1037.4
2018-09-26T07:55:10.269Z,1037.41
2018-09-26T07:56:10.291Z,1037.41
2018-09-26T07:57:09.984Z,1037.4
2018-09-26T07:58:10.152Z,1037.46
2018-09-26T07:59:11.075Z,1037.46
2018-09-26T08:00:10.013Z,1037.48
2018-09-26T08:01:10.218Z,1037.53
2018-09-26T08:02:10.190Z,1037.5
2018-09-26T08:03:10.229Z,1037.56
2018-09-26T08:04:10.236Z,1037.57
2018-09-26T08:05:10.060Z,1037.58
2018-09-26T08:06:10.086Z,1037.59
2018-09-26T08:07:10.260Z,1037.63
2018-09-26T08:08:10.272Z,1037.62
2018-09-26T08:09:10.272Z,1037.6
2018-09-26T08:10:10.234Z,1037.59
2018-09-26T08:11:10.235Z,1037.53
2018-09-26T08:12:10.130Z,1037.54
2018-09-26T08:13:09.928Z,1037.5
2018-09-26T08:14:09.968Z,1037.48
2018-09-26T08:15:10.056Z,1037.35
2018-09-26T08:16:10.116Z,1037.29
2018-09-26T08:17:09.979Z,1037.31
2018-09-26T08:18:10.185Z,1037.34
2018-09-26T08:19:10.083Z,1037.38
2018-09-26T08:20:10.142Z,1037.36
2018-09-26T08:21:10.123Z,1037.46
2018-09-26T08:22:10.130Z,1037.45
2018-09-26T08:23:09.969Z,1037.49
2018-09-26T08:24:10.408Z,1037.51
2018-09-26T08:25:09.929Z,1037.48
2018-09-26T08:26:10.028Z,1037.47
2018-09-26T08:27:09.959Z,1037.48
2018-09-26T08:28:10.312Z,1037.51
2018-09-26T08:29:10.049Z,1037.55
2018-09-26T08:30:11.316Z,1037.57
2018-09-26T08:31:10.024Z,1037.61
2018-09-26T08:32:09.930Z,1037.53
2018-09-26T08:33:10.111Z,1037.55
2018-09-26T08:34:10.183Z,1037.52
2018-09-26T08:35:10.255Z,1037.46
2018-09-26T08:36:10.125Z,1037.43
2018-09-26T08:37:10.079Z,1037.41
2018-09-26T08:38:10.077Z,1037.37
2018-09-26T08:39:09.974Z,1037.42
2018-09-26T08:40:10.100Z,1037.39
2018-09-26T08:41:09.959Z,1037.44
2018-09-26T08:42:10.112Z,1037.45
2018-09-26T08:43:10.043Z,1037.45
2018-09-26T08:44:10.081Z,1037.45
2018-09-26T08:45:10.030Z,1037.42
2018-09-26T08:46:09.962Z,1037.41
2018-09-26T08:47:09.968Z,1037.38
2018-09-26T08:48:10.141Z,1037.41
2018-09-26T08:49:10.162Z,1037.52
2018-09-26T08:50:09.832Z,1037.55
2018-09-26T08:51:10.028Z,1037.65
2018-09-26T08:52:10.016Z,1037.67
2018-09-26T08:53:10.205Z,1037.72
2018-09-26T08:54:10.045Z,1037.81
2018-09-26T08:55:09.992Z,1037.81
2018-09-26T08:56:10.004Z,1037.87
2018-09-26T08:57:10.200Z,1037.85
2018-09-26T08:58:09.944Z,1037.84
2018-09-26T08:59:10.014Z,1037.85
2018-09-26T09:00:10.064Z,1037.78
2018-09-26T09:01:09.812Z,1037.75
2018-09-26T09:02:09.835Z,1037.75
2018-09-26T09:03:09.995Z,1037.61
2018-09-26T09:04:09.854Z,1037.61
2018-09-26T09:05:09.913Z,1037.61
2018-09-26T09:06:10.004Z,1037.63
2018-09-26T09:07:09.821Z,1037.62
2018-09-26T09:08:09.846Z,1037.51
2018-09-26T09:09:09.984Z,1037.52
2018-09-26T09:10:09.928Z,1037.55
2018-09-26T09:11:10.007Z,1037.48
2018-09-26T09:12:10.208Z,1037.46
2018-09-26T09:13:10.513Z,1037.42
2018-09-26T09:14:10.100Z,1037.45
2018-09-26T09:15:10.220Z,1037.44
2018-09-26T09:16:10.661Z,1037.41
2018-09-26T09:17:10.140Z,1037.36
2018-09-26T09:18:10.239Z,1037.34
2018-09-26T09:19:11.284Z,1037.3
2018-09-26T09:20:10.279Z,1037.37
2018-09-26T09:21:10.263Z,1037.35
2018-09-26T09:22:10.270Z,1037.29
2018-09-26T09:23:10.089Z,1037.34
2018-09-26T09:24:10.193Z,1037.33
2018-09-26T09:25:10.196Z,1037.35
2018-09-26T09:26:10.377Z,1037.36
2018-09-26T09:27:10.283Z,1037.36
2018-09-26T09:28:10.106Z,1037.37
2018-09-26T09:29:10.232Z,1037.37
2018-09-26T09:30:10.223Z,1037.34
2018-09-26T09:31:09.913Z,1037.36
2018-09-26T09:32:10.482Z,1037.32
2018-09-26T09:33:10.142Z,1037.27
2018-09-26T09:34:10.468Z,1037.24
2018-09-26T09:35:09.802Z,1037.25
2018-09-26T09:36:10.152Z,1037.26
2018-09-26T09:37:10.060Z,1037.25
2018-09-26T09:38:10.068Z,1037.22
2018-09-26T09:39:09.974Z,1037.26
2018-09-26T09:40:10.103Z,1037.23
2018-09-26T09:41:10.206Z,1037.23
2018-09-26T09:42:11.129Z,1037.25
2018-09-26T09:43:10.204Z,1037.17
2018-09-26T09:44:10.370Z,1037.12
2018-09-26T09:45:10.139Z,1037.12
2018-09-26T09:46:09.926Z,1037.11
2018-09-26T09:47:09.919Z,1037.12
2018-09-26T09:48:10.142Z,1037.14
2018-09-26T09:49:09.936Z,1037.25
2018-09-26T09:50:10.136Z,1037.24
2018-09-26T09:51:10.170Z,1037.19
2018-09-26T09:52:10.022Z,1037.21
2018-09-26T09:53:09.749Z,1037.19
2018-09-26T09:54:10.080Z,1037.17
2018-09-26T09:55:10.071Z,1037.21
2018-09-26T09:56:10.086Z,1037.24
2018-09-26T09:57:10.202Z,1037.2
2018-09-26T09:58:10.223Z,1037.24
2018-09-26T09:59:10.057Z,1037.17
2018-09-26T10:00:10.848Z,1037.2
2018-09-26T10:01:09.917Z,1037.16
2018-09-26T10:02:10.126Z,1037.13
2018-09-26T10:03:10.314Z,1037.17
2018-09-26T10:04:10.073Z,1037.13
2018-09-26T10:05:09.900Z,1037.16
2018-09-26T10:06:09.943Z,1037.12
2018-09-26T10:07:09.993Z,1037.11
2018-09-26T10:08:10.114Z,1037.09
2018-09-26T10:09:10.195Z,1037.07
2018-09-26T10:10:10.221Z,1037.05
2018-09-26T10:11:09.893Z,1037.03
2018-09-26T10:12:12.258Z,1037.04
2018-09-26T10:13:09.986Z,1037.01
2018-09-26T10:14:10.299Z,1036.99
2018-09-26T10:15:10.126Z,1037.04
2018-09-26T10:16:10.144Z,1036.99
2018-09-26T10:17:09.719Z,1037.03
2018-09-26T10:18:10.148Z,1037.03
2018-09-26T10:19:09.773Z,1036.96
2018-09-26T10:20:09.886Z,1036.96
2018-09-26T10:21:09.917Z,1036.98
2018-09-26T10:22:09.889Z,1036.98
2018-09-26T10:23:10.103Z,1036.92
2018-09-26T10:24:10.182Z,1036.98
2018-09-26T10:25:10.218Z,1036.95
2018-09-26T10:26:10.210Z,1036.92
2018-09-26T10:27:10.115Z,1036.92
2018-09-26T10:28:09.915Z,1036.9
2018-09-26T10:29:09.832Z,1036.85
2018-09-26T10:30:09.923Z,1036.78
2018-09-26T10:31:09.917Z,1036.87
2018-09-26T10:32:09.910Z,1036.85
2018-09-26T10:33:10.157Z,1036.84
2018-09-26T10:34:09.950Z,1036.86
2018-09-26T10:35:09.993Z,1036.9
2018-09-26T10:36:09.751Z,1036.87
2018-09-26T10:37:10.092Z,1036.85
2018-09-26T10:38:10.062Z,1036.89
2018-09-26T10:39:10.090Z,1036.88
2018-09-26T10:40:10.519Z,1036.86
2018-09-26T10:41:09.710Z,1036.88
2018-09-26T10:42:09.965Z,1036.87
2018-09-26T10:43:09.994Z,1036.83
2018-09-26T10:44:09.737Z,1036.85
2018-09-26T10:45:10.232Z,1036.78
2018-09-26T10:46:09.909Z,1036.8
2018-09-26T10:47:09.814Z,1036.82
2018-09-26T10:48:10.145Z,1036.78
2018-09-26T10:49:10.017Z,1036.83
2018-09-26T10:50:10.023Z,1036.79
2018-09-26T10:51:10.389Z,1036.77
2018-09-26T10:52:09.959Z,1036.78
2018-09-26T10:53:09.677Z,1036.79
2018-09-26T10:54:09.924Z,1036.71
2018-09-26T10:55:09.749Z,1036.8
2018-09-26T10:56:09.865Z,1036.77
2018-09-26T10:57:10.020Z,1036.73
2018-09-26T10:58:09.924Z,1036.7
2018-09-26T10:59:09.966Z,1036.68
2018-09-26T11:00:10.124Z,1036.7
2018-09-26T11:01:09.844Z,1036.74
2018-09-26T11:02:10.325Z,1036.69
2018-09-26T11:03:10.163Z,1036.7
2018-09-26T11:04:10.050Z,1036.71
2018-09-26T11:05:09.808Z,1036.64
2018-09-26T11:06:09.761Z,1036.61
2018-09-26T11:07:09.650Z,1036.63
2018-09-26T11:08:10.231Z,1036.62
2018-09-26T11:09:10.120Z,1036.62
2018-09-26T11:10:09.869Z,1036.63
2018-09-26T11:11:09.889Z,1036.6
2018-09-26T11:12:10.107Z,1036.58
2018-09-26T11:13:09.912Z,1036.53
2018-09-26T11:14:09.932Z,1036.51
2018-09-26T11:15:09.967Z,1036.48
2018-09-26T11:16:10.050Z,1036.49
2018-09-26T11:17:09.928Z,1036.44
2018-09-26T11:18:09.734Z,1036.42
2018-09-26T11:19:09.846Z,1036.44
2018-09-26T11:20:09.722Z,1036.37
2018-09-26T11:21:09.854Z,1036.4
2018-09-26T11:22:10.019Z,1036.38
2018-09-26T11:23:09.652Z,1036.39
2018-09-26T11:24:09.782Z,1036.43
2018-09-26T11:25:09.883Z,1036.44
2018-09-26T11:26:09.971Z,1036.48
2018-09-26T11:27:10.257Z,1036.41
2018-09-26T11:28:10.052Z,1036.38
2018-09-26T11:29:09.797Z,1036.36
2018-09-26T11:30:10.129Z,1036.35
2018-09-26T11:31:09.829Z,1036.3
2018-09-26T11:32:10.054Z,1036.32
2018-09-26T11:33:09.959Z,1036.32
2018-09-26T11:34:09.786Z,1036.3
2018-09-26T11:35:09.689Z,1036.31
2018-09-26T11:36:09.891Z,1036.33
2018-09-26T11:37:10.094Z,1036.31
2018-09-26T11:38:09.878Z,1036.26
2018-09-26T11:39:09.943Z,1036.29
2018-09-26T11:40:09.880Z,1036.24
2018-09-26T11:41:09.695Z,1036.23
2018-09-26T11:42:09.613Z,1036.18
2018-09-26T11:43:10.114Z,1036.16
2018-09-26T11:44:09.894Z,1036.17
2018-09-26T11:45:09.891Z,1036.21
2018-09-26T11:46:09.711Z,1036.18
2018-09-26T11:47:09.897Z,1036.18
2018-09-26T11:48:09.618Z,1036.19
2018-09-26T11:49:09.770Z,1036.13
2018-09-26T11:50:10.110Z,1036.12
2018-09-26T11:51:09.766Z,1036.06
2018-09-26T11:52:09.885Z,1036.07
2018-09-26T11:53:09.742Z,1036.08
2018-09-26T11:54:10.216Z,1036.16
2018-09-26T11:55:09.785Z,1036.15
2018-09-26T11:56:09.884Z,1036.16
2018-09-26T11:57:09.903Z,1036.12
2018-09-26T11:58:09.735Z,1036.1
2018-09-26T11:59:09.858Z,1036.13
2018-09-26T12:00:09.724Z,1036.06
2018-09-26T12:01:09.730Z,1036.09
2018-09-26T12:02:09.924Z,1036.03
2018-09-26T12:03:10.063Z,1036.01
2018-09-26T12:04:09.900Z,1036
2018-09-26T12:05:10.077Z,1036
2018-09-26T12:06:09.818Z,1036
2018-09-26T12:08:09.947Z,1035.93
2018-09-26T12:09:09.761Z,1035.98